Time;durP1;ratioP1;P1;durP2;ratioP2;P2;SDS_P1;SDS_P2;PMS_P1;PMS_P2;Temp;Humidity;BMP_temperature;BMP_pressure;BME280_temperature;BME280_humidity;BME280_pressure;Samples;Min_cycle;Max_cycle;Signal;HPM_P1;HPM_P2
2023/09/01 00:01:08;;;;;;;10.00;4.90;;;;;;;13.27;100.00;101005.69;5184416;28;20045;-76
2023/09/01 00:03:40;;;;;;;12.87;4.53;;;;;;;13.28;100.00;100999.53;5202352;28;20039;-76
2023/09/01 00:06:13;;;;;;;9.80;5.20;;;;;;;13.27;100.00;100996.06;5184787;28;20549;-76
2023/09/01 00:08:44;;;;;;;10.02;4.65;;;;;;;13.26;100.00;100996.94;5201460;28;20054;-76
2023/09/01 00:11:15;;;;;;;9.53;5.47;;;;;;;13.26;100.00;100991.72;5201496;28;20105;-77
2023/09/01 00:13:47;;;;;;;14.00;5.10;;;;;;;13.19;100.00;100984.03;5201412;28;20030;-76
2023/09/01 00:16:19;;;;;;;12.07;5.15;;;;;;;13.19;100.00;100992.75;5201304;28;20034;-76
2023/09/01 00:18:50;;;;;;;7.93;4.37;;;;;;;13.27;100.00;100985.59;5201485;28;20036;-75
2023/09/01 00:21:21;;;;;;;10.13;4.40;;;;;;;13.24;100.00;100982.19;5201478;28;20041;-76
2023/09/01 00:23:53;;;;;;;12.43;4.93;;;;;;;13.30;100.00;100987.28;5200999;28;20068;-75
2023/09/01 00:26:24;;;;;;;10.33;4.87;;;;;;;13.20;100.00;100991.84;5201188;28;20114;-76
2023/09/01 00:28:56;;;;;;;12.80;4.87;;;;;;;13.17;100.00;100978.84;5200864;28;20038;-76
2023/09/01 00:31:27;;;;;;;11.33;4.73;;;;;;;13.19;100.00;100970.94;5201090;28;20394;-76
2023/09/01 00:33:58;;;;;;;9.30;4.73;;;;;;;13.15;100.00;100977.97;5200993;28;20022;-77
2023/09/01 00:36:30;;;;;;;13.17;6.40;;;;;;;13.19;100.00;100970.94;5200952;28;20035;-76
2023/09/01 00:39:02;;;;;;;13.67;6.47;;;;;;;13.16;100.00;100976.25;5183083;28;20060;-76
2023/09/01 00:41:34;;;;;;;10.00;5.95;;;;;;;13.13;100.00;100974.53;5201023;28;20066;-76
2023/09/01 00:44:06;;;;;;;11.20;5.10;;;;;;;13.12;100.00;100968.44;5200462;28;20022;-75
2023/09/01 00:46:39;;;;;;;11.47;5.10;;;;;;;13.10;100.00;100970.22;5200800;28;20066;-75
2023/09/01 00:49:11;;;;;;;12.70;5.40;;;;;;;13.06;100.00;100965.94;5201012;28;20040;-75
2023/09/01 00:51:46;;;;;;;11.40;5.10;;;;;;;12.99;100.00;100961.72;5201047;28;20474;-76
2023/09/01 00:54:19;;;;;;;13.90;5.53;;;;;;;13.00;100.00;100965.22;5200770;28;20034;-76
2023/09/01 00:56:53;;;;;;;10.25;4.85;;;;;;;13.06;100.00;100967.72;5200612;28;20438;-76
2023/09/01 00:59:25;;;;;;;11.38;5.07;;;;;;;13.08;100.00;100965.91;5200238;28;20113;-76
2023/09/01 01:01:57;;;;;;;11.63;4.60;;;;;;;13.09;100.00;100963.28;5200467;28;20036;-76
2023/09/01 01:04:28;;;;;;;9.87;4.77;;;;;;;13.10;100.00;100959.75;5200542;28;20045;-76
2023/09/01 01:07:15;;;;;;;9.57;5.03;;;;;;;13.12;100.00;100968.44;5204272;28;20045;-76
2023/09/01 01:10:06;;;;;;;12.18;5.65;;;;;;;13.20;100.00;100975.28;5220353;28;20105;-76
2023/09/01 01:12:56;;;;;;;9.25;4.88;;;;;;;13.13;100.00;100978.00;5220960;28;20524;-77
2023/09/01 01:15:32;;;;;;;12.05;5.53;;;;;;;13.12;100.00;100975.41;5220978;28;20458;-77
2023/09/01 01:18:08;;;;;;;10.10;5.10;;;;;;;13.13;100.00;100978.00;5220796;28;20044;-76
2023/09/01 01:21:11;;;;;;;9.85;4.25;;;;;;;13.19;100.00;100981.41;5220591;28;20052;-76
2023/09/01 01:23:42;;;;;;;10.65;4.78;;;;;;;13.17;100.00;100978.84;5204829;28;20046;-77
2023/09/01 01:26:15;;;;;;;12.57;4.73;;;;;;;13.10;100.00;100962.38;5220924;28;20425;-77
2023/09/01 01:28:46;;;;;;;9.95;5.05;;;;;;;13.06;100.00;100963.34;5220668;28;20127;-76
2023/09/01 01:31:18;;;;;;;9.57;4.67;;;;;;;13.00;100.00;100963.44;5203075;28;20061;-77
2023/09/01 01:33:56;;;;;;;11.07;5.27;;;;;;;13.01;100.00;100967.81;5220754;28;20071;-77
2023/09/01 01:36:58;;;;;;;11.00;5.25;;;;;;;12.99;100.00;100966.09;5220590;28;20057;-77
2023/09/01 01:39:33;;;;;;;12.30;5.28;;;;;;;13.02;100.00;100968.66;5220236;28;20034;-76
2023/09/01 01:42:10;;;;;;;8.43;4.93;;;;;;;12.97;100.00;100971.38;5220396;28;20045;-77
2023/09/01 01:44:48;;;;;;;12.15;5.20;;;;;;;13.00;100.00;100970.44;5202884;28;20116;-75
2023/09/01 01:47:21;;;;;;;9.80;5.15;;;;;;;13.00;100.00;100975.69;5222409;28;20378;-77
2023/09/01 01:49:52;;;;;;;10.05;4.93;;;;;;;13.00;100.00;100986.16;5224400;28;20052;-75
2023/09/01 01:52:23;;;;;;;13.20;5.80;;;;;;;13.04;100.00;100990.41;5209342;28;20030;-75
2023/09/01 01:54:55;;;;;;;10.00;5.27;;;;;;;13.07;100.00;100982.50;5202842;28;20110;-76
2023/09/01 01:57:26;;;;;;;11.60;6.10;;;;;;;13.03;100.00;100981.72;5203560;28;20030;-76
2023/09/01 01:59:57;;;;;;;13.60;5.33;;;;;;;13.04;100.00;100985.19;5203452;28;20038;-75
2023/09/01 02:02:29;;;;;;;11.33;5.53;;;;;;;13.02;100.00;100973.88;5201973;28;20065;-76
2023/09/01 02:05:00;;;;;;;9.20;5.37;;;;;;;13.04;100.00;100970.38;5203620;28;20034;-76
2023/09/01 02:07:32;;;;;;;11.20;5.13;;;;;;;13.06;100.00;100971.19;5203297;28;20474;-76
2023/09/01 02:10:05;;;;;;;7.60;4.85;;;;;;;13.10;100.00;100970.22;5202816;28;20060;-76
2023/09/01 02:12:37;;;;;;;10.95;5.25;;;;;;;13.07;100.00;100951.09;5203206;28;20045;-75
2023/09/01 02:15:09;;;;;;;9.83;5.53;;;;;;;13.08;100.00;100961.53;5203757;28;20034;-75
2023/09/01 02:17:40;;;;;;;13.88;6.13;;;;;;;13.04;100.00;100957.28;5203318;28;20337;-76
2023/09/01 02:20:18;;;;;;;9.90;5.30;;;;;;;13.10;100.00;100964.97;5201180;28;20041;-76
2023/09/01 02:22:50;;;;;;;11.68;4.82;;;;;;;13.04;100.00;100965.13;5202667;28;20030;-77
2023/09/01 02:25:21;;;;;;;11.48;5.65;;;;;;;13.04;100.00;100962.50;5202774;28;20470;-77
2023/09/01 02:27:53;;;;;;;9.77;5.07;;;;;;;13.07;100.00;100966.81;5202911;28;20066;-76
2023/09/01 02:30:24;;;;;;;9.07;5.30;;;;;;;13.07;100.00;100967.69;5203230;28;20447;-77
2023/09/01 02:32:56;;;;;;;9.50;5.10;;;;;;;13.10;100.00;100967.59;5203073;28;20030;-76
2023/09/01 02:35:28;;;;;;;9.53;5.47;;;;;;;13.09;100.00;100970.28;5202733;28;20038;-76
2023/09/01 02:37:59;;;;;;;12.90;5.43;;;;;;;13.03;100.00;100950.31;5202989;28;20487;-75
2023/09/01 02:40:30;;;;;;;12.13;5.53;;;;;;;13.06;100.00;100952.00;5184983;28;20074;-75
2023/09/01 02:43:03;;;;;;;10.83;5.43;;;;;;;13.03;100.00;100944.22;5202870;28;20052;-76
2023/09/01 02:45:34;;;;;;;11.57;5.72;;;;;;;12.93;100.00;100943.56;5202902;28;20065;-76
2023/09/01 02:48:06;;;;;;;10.37;6.37;;;;;;;12.89;100.00;100936.66;5202914;28;20058;-77
2023/09/01 02:50:37;;;;;;;12.00;5.50;;;;;;;12.91;100.00;100937.47;5202339;28;20034;-76
2023/09/01 02:53:08;;;;;;;11.03;5.73;;;;;;;12.97;100.00;100946.97;5202698;28;20030;-76
2023/09/01 02:55:40;;;;;;;11.27;5.83;;;;;;;12.93;100.00;100949.63;5202763;28;20049;-76
2023/09/01 02:58:11;;;;;;;13.33;7.63;;;;;;;12.91;100.00;100940.09;5202270;28;20098;-76
2023/09/01 03:00:46;;;;;;;15.17;7.57;;;;;;;12.91;100.00;100950.53;5202580;28;20080;-76
2023/09/01 03:03:20;;;;;;;11.20;6.10;;;;;;;12.94;100.00;100956.59;5202586;28;20402;-77
2023/09/01 03:05:52;;;;;;;10.13;6.63;;;;;;;12.98;100.00;100960.00;5202400;28;20030;-76
2023/09/01 03:08:23;;;;;;;9.93;6.50;;;;;;;12.93;100.00;100943.56;5202182;28;20030;-75
2023/09/01 03:10:55;;;;;;;12.13;6.30;;;;;;;12.95;100.00;100950.47;5201650;28;20405;-76
2023/09/01 03:13:27;;;;;;;16.93;6.27;;;;;;;12.97;100.00;100955.66;5202596;28;20109;-76
2023/09/01 03:15:58;;;;;;;10.95;6.72;;;;;;;13.02;100.00;100956.44;5202294;28;20058;-76
2023/09/01 03:18:30;;;;;;;10.37;5.50;;;;;;;13.09;100.00;100946.72;5184977;28;20076;-76
2023/09/01 03:21:09;;;;;;;12.57;6.77;;;;;;;13.07;100.00;100938.00;5184763;28;20042;-76
2023/09/01 03:23:41;;;;;;;12.00;6.80;;;;;;;13.05;100.00;100939.81;5202099;28;20536;-75
2023/09/01 03:26:12;;;;;;;14.82;7.22;;;;;;;13.13;100.00;100943.13;5202094;28;20065;-76
2023/09/01 03:28:44;;;;;;;13.53;7.70;;;;;;;13.11;100.00;100942.31;5201991;28;20034;-76
2023/09/01 03:31:16;;;;;;;11.80;7.03;;;;;;;13.15;100.00;100949.19;5201990;28;20061;-75
2023/09/01 03:33:48;;;;;;;10.27;7.15;;;;;;;13.15;100.00;100946.56;5201948;28;20130;-76
2023/09/01 03:36:19;;;;;;;11.30;6.33;;;;;;;13.22;100.00;100940.31;5202084;28;20450;-76
2023/09/01 03:38:54;;;;;;;12.83;7.37;;;;;;;13.29;100.00;100941.91;5201399;28;20548;-76
2023/09/01 03:41:25;;;;;;;11.82;7.00;;;;;;;13.25;100.00;100942.88;5201553;28;20030;-76
2023/09/01 03:43:56;;;;;;;8.80;6.63;;;;;;;13.30;100.00;100937.56;5201732;28;20032;-76
2023/09/01 03:46:28;;;;;;;11.97;6.87;;;;;;;13.32;100.00;100927.91;5201687;28;20062;-75
2023/09/01 03:48:59;;;;;;;15.73;7.53;;;;;;;13.32;100.00;100927.91;5201531;28;20088;-76
2023/09/01 03:51:31;;;;;;;11.03;7.00;;;;;;;13.33;100.00;100932.28;5201315;28;20064;-76
2023/09/01 03:54:02;;;;;;;10.47;7.43;;;;;;;13.32;100.00;100930.50;5201221;28;20490;-75
2023/09/01 03:56:33;;;;;;;8.93;6.87;;;;;;;13.35;100.00;100929.59;5201539;28;20033;-75
2023/09/01 03:59:06;;;;;;;12.93;7.60;;;;;;;13.37;100.00;100920.84;5201117;28;20062;-75
2023/09/01 04:01:37;;;;;;;12.85;6.53;;;;;;;13.35;100.00;100917.38;5201350;28;20031;-76
2023/09/01 04:04:09;;;;;;;14.83;7.03;;;;;;;13.37;100.00;100917.34;5201140;28;20038;-76
2023/09/01 04:06:41;;;;;;;11.67;8.40;;;;;;;13.34;100.00;100920.03;5201353;28;20038;-75
2023/09/01 04:09:12;;;;;;;13.45;7.60;;;;;;;13.37;100.00;100919.97;5200083;28;20034;-76
2023/09/01 04:11:43;;;;;;;11.37;6.70;;;;;;;13.42;100.00;100928.59;5201196;28;20057;-76
2023/09/01 04:14:15;;;;;;;13.80;6.83;;;;;;;13.45;100.00;100929.38;5200786;28;20026;-76
2023/09/01 04:16:46;;;;;;;10.90;6.43;;;;;;;13.43;100.00;100923.31;5201170;28;20030;-75
2023/09/01 04:19:17;;;;;;;11.83;7.57;;;;;;;13.46;100.00;100914.53;5201067;28;20042;-75
2023/09/01 04:21:49;;;;;;;9.63;6.47;;;;;;;13.49;100.00;100924.91;5201090;28;20038;-77
2023/09/01 04:24:20;;;;;;;9.77;6.43;;;;;;;13.48;100.00;100918.84;5201064;28;20026;-77
2023/09/01 04:26:52;;;;;;;9.60;5.83;;;;;;;13.49;100.00;100924.91;5201018;28;20054;-76
2023/09/01 04:29:23;;;;;;;12.07;7.67;;;;;;;13.53;100.00;100928.34;5200926;28;20467;-76
2023/09/01 04:31:54;;;;;;;11.93;6.73;;;;;;;13.54;100.00;100915.22;5200912;28;20030;-76
2023/09/01 04:34:26;;;;;;;12.60;7.47;;;;;;;13.55;100.00;100916.94;5200905;28;20037;-76
2023/09/01 04:36:57;;;;;;;11.10;6.20;;;;;;;13.54;100.00;100915.22;5201170;28;20057;-74
2023/09/01 04:39:29;;;;;;;17.70;7.50;;;;;;;13.56;100.00;100908.19;5200115;28;20034;-75
2023/09/01 04:42:00;;;;;;;10.60;5.93;;;;;;;13.55;100.00;100914.31;5200746;28;20068;-76
2023/09/01 04:44:31;;;;;;;12.77;7.23;;;;;;;13.53;100.00;100905.63;5200481;28;20508;-76
2023/09/01 04:47:03;;;;;;;9.17;6.57;;;;;;;13.57;100.00;100912.53;5183245;28;20081;-75
2023/09/01 04:49:35;;;;;;;13.07;7.07;;;;;;;13.57;100.00;100909.91;5182953;28;20070;-76
2023/09/01 04:52:06;;;;;;;14.00;6.90;;;;;;;13.57;100.00;100916.88;5200721;28;20062;-76
2023/09/01 04:54:37;;;;;;;9.50;6.27;;;;;;;13.54;100.00;100924.81;5183108;28;20038;-75
2023/09/01 04:57:09;;;;;;;11.03;6.70;;;;;;;13.56;100.00;100928.28;5183175;28;20536;-75
2023/09/01 04:59:40;;;;;;;10.13;7.27;;;;;;;13.59;100.00;100933.47;5200581;28;20042;-76
2023/09/01 05:02:12;;;;;;;11.13;6.20;;;;;;;13.61;100.00;100931.66;5183271;28;20023;-76
2023/09/01 05:04:43;;;;;;;13.23;7.00;;;;;;;13.62;100.00;100923.75;5200622;28;20029;-77
2023/09/01 05:07:15;;;;;;;9.40;6.80;;;;;;;13.64;100.00;100921.09;5200886;28;20034;-77
2023/09/01 05:09:46;;;;;;;11.55;6.55;;;;;;;13.69;100.00;100908.75;5200093;28;20030;-76
2023/09/01 05:12:17;;;;;;;10.83;6.53;;;;;;;13.75;100.00;100919.09;5182993;28;20137;-76
2023/09/01 05:14:49;;;;;;;11.83;7.20;;;;;;;13.79;100.00;100925.13;5200447;28;20030;-77
2023/09/01 05:17:20;;;;;;;13.07;7.03;;;;;;;13.81;100.00;100928.56;5200512;28;20042;-75
2023/09/01 05:19:53;;;;;;;11.10;6.73;;;;;;;13.82;100.00;100920.66;5200549;28;20033;-77
2023/09/01 05:22:25;;;;;;;8.88;6.50;;;;;;;13.92;100.00;100923.06;5203946;28;20057;-75
2023/09/01 05:24:56;;;;;;;11.48;6.45;;;;;;;13.88;100.00;100914.44;5204200;28;20045;-77
2023/09/01 05:27:27;;;;;;;12.70;6.93;;;;;;;13.92;100.00;100921.28;5204439;28;20387;-76
2023/09/01 05:29:59;;;;;;;9.77;7.20;;;;;;;13.97;100.00;100936.91;5204344;28;20544;-77
2023/09/01 05:32:30;;;;;;;9.03;6.03;;;;;;;13.99;100.00;100930.75;5204347;28;20116;-76
2023/09/01 05:35:02;;;;;;;11.33;7.40;;;;;;;14.00;100.00;100934.22;5204291;28;20038;-76
2023/09/01 05:37:34;;;;;;;11.05;7.07;;;;;;;14.04;100.00;100930.63;5186984;28;20031;-76
2023/09/01 05:40:07;;;;;;;11.10;7.50;;;;;;;14.07;100.00;100945.41;5203854;28;20054;-77
2023/09/01 05:42:38;;;;;;;11.40;7.55;;;;;;;14.07;100.00;100938.44;5204199;28;20128;-76
2023/09/01 05:45:09;;;;;;;10.07;7.83;;;;;;;14.11;100.00;100926.94;5204161;28;20065;-76
2023/09/01 05:47:43;;;;;;;11.53;7.47;;;;;;;14.15;100.00;100938.22;5186628;28;20042;-76
2023/09/01 05:50:14;;;;;;;10.15;6.90;;;;;;;14.15;100.00;100935.59;5171384;28;20470;-77
2023/09/01 05:52:46;;;;;;;11.27;6.90;;;;;;;14.22;100.00;100932.78;5206703;28;20035;-77
2023/09/01 05:55:17;;;;;;;13.97;6.93;;;;;;;14.30;100.00;100932.59;5208543;28;20461;-77
2023/09/01 05:57:48;;;;;;;13.33;7.37;;;;;;;14.36;100.00;100926.31;5204634;28;20033;-76
2023/09/01 06:00:20;;;;;;;10.13;7.03;;;;;;;14.40;100.00;100930.59;5216940;28;20093;-76
2023/09/01 06:02:52;;;;;;;9.30;6.77;;;;;;;14.46;100.00;100927.81;5182528;28;20474;-76
2023/09/01 06:05:24;;;;;;;10.73;7.15;;;;;;;14.51;100.00;100925.91;5189615;28;20442;-76
2023/09/01 06:07:55;;;;;;;10.90;7.80;;;;;;;14.57;100.00;100932.72;5203751;28;20035;-76
2023/09/01 06:10:27;;;;;;;13.27;7.90;;;;;;;14.61;100.00;100928.31;5202903;28;20466;-76
2023/09/01 06:12:58;;;;;;;11.30;7.27;;;;;;;14.62;100.00;100927.41;5186609;28;20041;-75
2023/09/01 06:15:29;;;;;;;17.30;9.20;;;;;;;14.59;100.00;100928.34;5186175;28;20103;-76
2023/09/01 06:18:01;;;;;;;11.87;7.47;;;;;;;14.61;100.00;100925.69;5203667;28;20030;-76
2023/09/01 06:20:32;;;;;;;17.27;7.60;;;;;;;14.56;100.00;100931.88;5186066;28;20540;-75
2023/09/01 06:23:04;;;;;;;16.17;8.07;;;;;;;14.62;100.00;100940.53;5203241;28;20030;-75
2023/09/01 06:25:35;;;;;;;14.13;8.63;;;;;;;14.61;100.00;100937.03;5203274;28;20038;-76
2023/09/01 06:28:06;;;;;;;10.30;8.33;;;;;;;14.62;100.00;100944.03;5203396;28;20058;-76
2023/09/01 06:30:40;;;;;;;12.87;8.47;;;;;;;14.61;100.00;100941.44;5203360;28;20495;-76
2023/09/01 06:33:11;;;;;;;11.55;7.80;;;;;;;14.62;100.00;100951.91;5202214;28;20096;-76
2023/09/01 06:35:43;;;;;;;10.27;8.37;;;;;;;14.66;100.00;100945.66;5202935;28;20034;-76
2023/09/01 06:38:14;;;;;;;14.80;8.40;;;;;;;14.74;100.00;100945.44;5203086;28;20033;-76
2023/09/01 06:40:45;;;;;;;14.13;8.97;;;;;;;14.76;100.00;100946.25;5201987;28;20438;-75
2023/09/01 06:43:17;;;;;;;14.43;8.33;;;;;;;14.80;100.00;100950.53;5185857;28;20034;-76
2023/09/01 06:45:48;;;;;;;15.23;8.93;;;;;;;14.83;100.00;100947.81;5202848;28;20061;-76
2023/09/01 06:48:20;;;;;;;13.80;8.37;;;;;;;14.83;100.00;100958.31;5201171;28;20030;-75
2023/09/01 06:50:52;;;;;;;10.57;8.50;;;;;;;14.92;100.00;100952.81;5202553;28;20452;-75
2023/09/01 06:53:23;;;;;;;13.13;9.27;;;;;;;14.98;100.00;100950.91;5201839;28;20477;-75
2023/09/01 06:55:54;;;;;;;11.63;9.33;;;;;;;14.99;100.00;100950.88;5202310;28;20096;-75
2023/09/01 06:58:26;;;;;;;13.33;9.37;;;;;;;15.00;100.00;100942.06;5203033;28;20038;-76
2023/09/01 07:01:09;;;;;;;18.57;9.33;;;;;;;14.94;100.00;100947.50;5202559;28;20035;-76
2023/09/01 07:03:40;;;;;;;;;;;;;;;15.11;100.00;100942.63;5202349;28;20069;-77
2023/09/01 07:06:11;;;;;;;12.30;9.75;;;;;;;14.96;100.00;100937.84;5201917;28;19953;-76
2023/09/01 07:08:43;;;;;;;13.93;10.13;;;;;;;14.99;100.00;100940.38;5201771;28;20029;-77
2023/09/01 07:11:19;;;;;;;16.73;9.70;;;;;;;14.99;100.00;100929.00;5201406;28;20066;-77
2023/09/01 07:13:53;;;;;;;12.75;9.75;;;;;;;14.93;100.00;100927.41;5184248;28;20273;-77
2023/09/01 07:16:25;;;;;;;12.45;9.45;;;;;;;14.97;100.00;100929.03;5184520;28;20037;-76
2023/09/01 07:18:56;;;;;;;17.80;11.33;;;;;;;14.98;100.00;100927.28;5201250;28;20474;-76
2023/09/01 07:21:28;;;;;;;14.73;10.90;;;;;;;14.94;100.00;100922.13;5184830;28;20370;-76
2023/09/01 07:23:59;;;;;;;13.30;10.20;;;;;;;14.92;100.00;100926.56;5201662;28;20034;-78
2023/09/01 07:26:31;;;;;;;15.83;11.20;;;;;;;14.93;100.00;100928.28;5201593;28;20120;-76
2023/09/01 07:29:02;;;;;;;15.73;11.40;;;;;;;14.92;100.00;100929.19;5183559;28;20438;-77
2023/09/01 07:31:35;;;;;;;13.20;10.33;;;;;;;14.92;100.00;100928.31;5178743;28;20042;-77
2023/09/01 07:34:07;;;;;;;13.00;10.65;;;;;;;14.88;100.00;100924.06;5200015;28;20034;-77
2023/09/01 07:36:38;;;;;;;14.00;10.57;;;;;;;14.98;100.00;100920.28;5201308;28;20093;-77
2023/09/01 07:39:10;;;;;;;14.53;10.87;;;;;;;14.95;100.00;100918.59;5199201;28;20038;-77
2023/09/01 07:41:41;;;;;;;13.80;10.50;;;;;;;14.99;100.00;100923.75;5201661;28;20045;-77
2023/09/01 07:44:16;;;;;;;16.60;11.60;;;;;;;15.00;100.00;100922.84;5183268;28;20065;-78
2023/09/01 07:46:47;;;;;;;17.17;11.73;;;;;;;14.97;100.00;100929.03;5195516;28;20022;-76
2023/09/01 07:49:19;;;;;;;13.87;10.70;;;;;;;15.02;100.00;100924.53;5196162;28;20057;-75
2023/09/01 07:51:50;;;;;;;15.07;12.03;;;;;;;15.02;100.00;100934.16;5183497;28;20434;-77
2023/09/01 07:54:22;;;;;;;11.57;9.63;;;;;;;15.00;100.00;100928.09;5200931;28;20068;-77
2023/09/01 07:56:53;;;;;;;17.23;10.70;;;;;;;15.09;100.00;100930.47;5199811;28;20041;-77
2023/09/01 07:59:28;;;;;;;13.40;10.97;;;;;;;15.05;100.00;100929.69;5200393;28;20558;-78
2023/09/01 08:01:59;;;;;;;17.92;11.45;;;;;;;15.07;100.00;100937.50;5200795;28;20482;-77
2023/09/01 08:04:30;;;;;;;13.50;10.53;;;;;;;15.13;100.00;100939.97;5182244;28;20028;-78
2023/09/01 08:07:03;;;;;;;12.13;10.83;;;;;;;15.09;100.00;100933.09;5200604;28;20429;-78
2023/09/01 08:09:34;;;;;;;11.57;10.43;;;;;;;15.13;100.00;100932.06;5199337;28;20494;-77
2023/09/01 08:12:06;;;;;;;12.60;10.10;;;;;;;15.15;100.00;100938.16;5199982;28;20178;-78
2023/09/01 08:14:37;;;;;;;10.70;9.67;;;;;;;15.13;100.00;100946.09;5200247;28;20110;-77
2023/09/01 08:17:09;;;;;;;12.30;11.00;;;;;;;15.19;100.00;100954.69;5200195;28;20473;-78
2023/09/01 08:19:47;;;;;;;13.83;10.37;;;;;;;15.17;100.00;100946.84;5198784;28;20041;-78
2023/09/01 08:22:18;;;;;;;11.18;10.07;;;;;;;15.26;100.00;100945.72;5201292;28;20034;-77
2023/09/01 08:24:49;;;;;;;13.27;10.77;;;;;;;15.30;100.00;100958.72;5200110;28;20045;-77
2023/09/01 08:27:21;;;;;;;11.67;10.47;;;;;;;15.31;100.00;100960.44;5201106;28;20397;-77
2023/09/01 08:29:52;;;;;;;10.70;9.70;;;;;;;15.28;100.00;100957.06;5200549;28;20034;-76
2023/09/01 08:32:27;;;;;;;11.00;9.50;;;;;;;15.32;100.00;100956.03;5196903;28;20125;-77
2023/09/01 08:35:02;;;;;;;11.02;9.40;;;;;;;15.32;100.00;100953.41;5198625;28;20045;-77
2023/09/01 08:37:33;;;;;;;12.60;9.40;;;;;;;15.31;100.00;100960.44;5200654;28;20026;-77
2023/09/01 08:40:09;;;;;;;11.77;9.90;;;;;;;15.32;100.00;100967.38;5198871;28;20056;-77
2023/09/01 08:42:48;;;;;;;11.57;9.48;;;;;;;15.30;100.00;100966.59;5201244;28;20032;-75
2023/09/01 08:45:21;;;;;;;10.07;9.07;;;;;;;15.29;100.00;100969.25;5203754;28;20029;-76
2023/09/01 08:47:53;;;;;;;10.00;8.98;;;;;;;15.33;100.00;100981.41;5197319;28;20034;-76
2023/09/01 08:50:25;;;;;;;14.38;9.55;;;;;;;15.32;100.00;100982.31;5201440;28;20022;-77
2023/09/01 08:52:59;;;;;;;10.43;9.37;;;;;;;15.38;100.00;100987.38;5201489;28;20030;-78
2023/09/01 08:55:30;;;;;;;10.48;9.38;;;;;;;15.40;100.00;100982.94;5202238;28;20081;-78
2023/09/01 08:58:03;;;;;;;12.53;9.30;;;;;;;15.43;100.00;100984.63;5208733;28;20030;-77
2023/09/01 09:00:34;;;;;;;10.50;9.40;;;;;;;15.44;100.00;100978.44;5209764;28;20034;-77
2023/09/01 09:03:06;;;;;;;11.70;10.27;;;;;;;15.42;100.00;100990.75;5190107;28;20050;-77
2023/09/01 09:05:38;;;;;;;10.80;9.80;;;;;;;15.44;100.00;100984.56;5209140;28;20374;-77
2023/09/01 09:08:09;;;;;;;12.00;10.80;;;;;;;15.47;100.00;100994.13;5207122;28;20117;-78
2023/09/01 09:10:46;;;;;;;11.07;9.98;;;;;;;15.39;100.00;100994.38;5208245;28;20050;-78
2023/09/01 09:13:30;;;;;;;10.82;9.85;;;;;;;15.35;100.00;100990.09;5193285;28;20034;-78
2023/09/01 09:16:12;;;;;;;12.98;9.57;;;;;;;15.38;100.00;100986.53;5213808;28;20028;-77
2023/09/01 09:18:47;;;;;;;11.25;10.20;;;;;;;15.37;100.00;100988.28;5211676;28;20476;-78
2023/09/01 09:21:29;;;;;;;11.10;10.05;;;;;;;15.35;100.00;100989.25;5213220;28;20026;-78
2023/09/01 09:24:05;;;;;;;11.48;9.95;;;;;;;15.34;100.00;100985.72;5208084;28;20041;-77
2023/09/01 09:26:36;;;;;;;10.18;9.18;;;;;;;15.38;100.00;100987.38;5209227;28;20434;-78
2023/09/01 09:29:11;;;;;;;9.87;8.87;;;;;;;15.43;100.00;100998.59;5207797;28;20108;-75
2023/09/01 09:31:44;;;;;;;11.00;8.70;;;;;;;15.45;100.00;100988.06;5203092;28;20053;-79
2023/09/01 09:34:17;;;;;;;9.43;8.52;;;;;;;15.45;100.00;100994.16;5206332;28;20030;-78
2023/09/01 09:36:49;;;;;;;9.73;8.68;;;;;;;15.47;100.00;101002.00;5209286;28;20165;-79
2023/09/01 09:39:30;;;;;;;10.00;9.10;;;;;;;15.43;100.00;101003.84;5189219;28;20063;-79
2023/09/01 09:42:01;;;;;;;9.38;8.48;;;;;;;15.42;100.00;100998.66;5189726;28;20073;-79
2023/09/01 09:44:34;;;;;;;9.47;8.47;;;;;;;15.48;100.00;101006.34;5207921;28;20386;-77
2023/09/01 09:47:10;;;;;;;8.25;7.45;;;;;;;15.45;100.00;100998.56;5206875;28;20117;-78
2023/09/01 09:49:43;;;;;;;8.38;7.55;;;;;;;15.54;100.00;101002.69;5209805;28;20042;-78
2023/09/01 09:52:17;;;;;;;11.43;7.78;;;;;;;15.52;100.00;101004.50;5213955;28;20026;-79
2023/09/01 09:54:51;;;;;;;7.82;6.97;;;;;;;15.58;100.00;101010.41;5208701;28;20034;-78
2023/09/01 09:57:23;;;;;;;7.32;6.60;;;;;;;15.65;100.00;101011.13;5207047;28;20034;-79
2023/09/01 10:00:06;;;;;;;7.20;6.57;;;;;;;15.77;100.00;101004.66;5211089;28;20038;-79
2023/09/01 10:02:47;;;;;;;7.43;5.95;;;;;;;15.80;100.00;101004.56;5208557;28;20080;-80
2023/09/01 10:05:21;;;;;;;6.88;6.05;;;;;;;15.96;100.00;101000.53;5207342;28;20386;-79
2023/09/01 10:07:53;;;;;;;6.00;5.40;;;;;;;15.98;100.00;100998.69;5203335;28;20027;-77
2023/09/01 10:10:26;;;;;;;5.60;5.10;;;;;;;16.01;100.00;100987.25;5201258;28;20030;-78
2023/09/01 10:12:57;;;;;;;;;;;;;;;16.18;100.00;100982.28;5203612;28;20030;-79
2023/09/01 10:15:31;;;;;;;5.13;4.68;;;;;;;16.04;100.00;100989.78;5202477;28;19924;-79
2023/09/01 10:18:05;;;;;;;6.55;5.22;;;;;;;16.03;100.00;100993.31;5183807;28;20092;-78
2023/09/01 10:20:40;;;;;;;5.32;4.82;;;;;;;16.09;100.00;100989.63;5213213;28;20029;-78
2023/09/01 10:23:13;;;;;;;6.10;5.28;;;;;;;16.07;100.00;100996.69;5221672;28;20087;-78
2023/09/01 10:26:15;;;;;;;7.05;5.60;;;;;;;16.20;100.00;100995.41;5223139;28;20037;-78
2023/09/01 10:29:04;;;;;;;6.38;5.72;;;;;;;16.26;100.00;101002.22;5182019;28;20027;-78
2023/09/01 10:31:36;;;;;;;6.00;5.22;;;;;;;16.27;100.00;100999.53;5181137;28;20117;-77
2023/09/01 10:34:15;;;;;;;5.63;5.07;;;;;;;16.37;100.00;101000.09;5181922;28;20418;-78
2023/09/01 10:37:30;;;;;;;5.80;5.00;;;;;;;16.58;100.00;101001.13;5182887;28;20073;-81
2023/09/01 10:40:04;;;;;;;5.45;4.88;;;;;;;16.69;100.00;100996.34;5180757;28;20041;-80
2023/09/01 10:42:43;;;;;;;5.45;4.47;;;;;;;16.84;100.00;101004.63;5182021;28;20097;-80
2023/09/01 10:45:15;;;;;;;5.65;4.43;;;;;;;17.14;100.00;101016.72;5181941;28;20035;-80
2023/09/01 10:47:48;;;;;;;6.87;3.93;;;;;;;17.35;100.00;101016.84;5181493;28;20030;-80
2023/09/01 10:50:20;;;;;;;3.88;3.55;;;;;;;17.62;100.00;101017.56;5181670;28;20039;-81
2023/09/01 10:53:26;;;;;;;4.07;3.50;;;;;;;17.80;100.00;101015.16;5163432;28;20039;-81
2023/09/01 10:56:08;;;;;;;4.20;2.97;;;;;;;17.68;100.00;101025.25;5188808;28;20482;-80
2023/09/01 10:58:45;;;;;;;3.28;2.97;;;;;;;17.91;100.00;101026.16;5202028;28;20054;-79
2023/09/01 11:01:29;;;;;;;3.90;3.30;;;;;;;18.04;100.00;101027.38;5203043;28;20057;-80
2023/09/01 11:04:15;;;;;;;3.30;2.80;;;;;;;18.11;100.00;101025.38;5200484;28;20037;-79
2023/09/01 11:07:02;;;;;;;2.80;2.30;;;;;;;18.38;100.00;101035.72;5202283;28;20109;-78
2023/09/01 11:09:34;;;;;;;3.88;2.90;;;;;;;18.50;100.00;101026.41;5199954;28;20038;-78
2023/09/01 11:12:07;;;;;;;3.03;2.30;;;;;;;18.66;100.00;101030.13;5202125;28;20105;-78
2023/09/01 11:14:53;;;;;;;2.78;2.10;;;;;;;18.92;100.00;101022.91;5201251;28;20061;-79
2023/09/01 11:17:34;;;;;;;2.83;2.38;;;;;;;19.04;100.00;101018.84;5200476;28;20414;-79
2023/09/01 11:20:09;;;;;;;3.30;2.10;;;;;;;19.16;100.00;101023.59;5200604;28;20045;-79
2023/09/01 11:22:41;;;;;;;2.45;2.25;;;;;;;19.28;100.00;101033.59;5201394;28;20133;-80
2023/09/01 11:25:14;;;;;;;;;;;;;;;19.95;100.00;101033.22;5182574;28;20039;-80
2023/09/01 11:27:47;;;;;;;2.85;2.17;;;;;;;19.46;100.00;101024.00;5202233;28;20261;-80
2023/09/01 11:30:19;;;;;;;2.33;2.08;;;;;;;19.35;100.00;101022.75;5201296;28;20049;-80
2023/09/01 11:32:51;;;;;;;;;;;;;;;19.98;100.00;101033.91;5202604;28;20489;-79
2023/09/01 11:35:27;;;;;;;2.47;2.28;;;;;;;19.53;100.00;101037.78;5184994;28;19920;-79
2023/09/01 11:37:58;;;;;;;5.22;2.35;;;;;;;19.58;100.00;101037.56;5201174;28;20169;-79
2023/09/01 11:40:32;;;;;;;3.47;2.27;;;;;;;19.91;100.00;101039.56;5201760;28;20542;-79